createdAt,value
2023-01-23T06:07:38.227Z,6.20
2023-01-23T06:10:10.098Z,5.70
2023-01-23T06:12:37.366Z,6.30
2023-01-23T06:15:05.537Z,6.30
2023-01-23T06:17:33.196Z,6.30
2023-01-23T06:20:00.421Z,5.80
2023-01-23T06:22:29.509Z,7.70
2023-01-23T06:25:10.816Z,7.40
2023-01-23T06:27:38.260Z,6.80
2023-01-23T06:30:08.310Z,7.20
2023-01-23T06:32:43.332Z,6.10
2023-01-23T06:35:11.079Z,6.40
2023-01-23T06:37:42.206Z,8.00
2023-01-23T06:40:12.869Z,8.20
2023-01-23T06:42:42.185Z,7.90
2023-01-23T06:45:10.801Z,7.90
2023-01-23T06:47:38.250Z,8.10
2023-01-23T06:50:06.287Z,8.90
2023-01-23T06:52:36.813Z,10.40
2023-01-23T06:55:06.197Z,7.90
2023-01-23T06:57:33.973Z,8.80
2023-01-23T07:00:02.247Z,8.50
2023-01-23T07:02:30.892Z,10.50
2023-01-23T07:04:58.295Z,8.50
2023-01-23T07:07:26.209Z,10.60
2023-01-23T07:09:54.229Z,10.50
2023-01-23T07:12:26.305Z,8.10
2023-01-23T07:14:53.741Z,8.40
2023-01-23T07:17:25.004Z,11.00
2023-01-23T07:19:52.377Z,10.60
2023-01-23T07:22:22.567Z,10.30
2023-01-23T07:24:49.707Z,9.50
2023-01-23T07:27:17.081Z,8.60
2023-01-23T07:29:46.134Z,9.20
2023-01-23T07:32:13.220Z,9.40
2023-01-23T07:34:53.848Z,8.60
2023-01-23T07:37:21.589Z,8.90
2023-01-23T07:39:50.211Z,8.00
2023-01-23T07:42:18.565Z,8.80
2023-01-23T07:44:47.627Z,8.50
2023-01-23T07:47:15.051Z,6.70
2023-01-23T07:49:42.212Z,8.20
2023-01-23T07:52:09.858Z,7.50
2023-01-23T07:54:37.036Z,8.40
2023-01-23T07:57:04.809Z,8.40
2023-01-23T07:59:32.261Z,9.70
2023-01-23T08:02:08.925Z,8.70
2023-01-23T08:04:38.433Z,7.90
2023-01-23T08:36:15.640Z,8.10
2023-01-23T08:38:43.124Z,8.40
2023-01-23T09:14:35.776Z,8.90
2023-01-23T09:17:09.252Z,8.80
2023-01-23T09:19:37.283Z,10.10
2023-01-23T09:22:04.817Z,9.90
2023-01-23T09:24:32.783Z,11.10
2023-01-23T09:26:59.989Z,10.60
2023-01-23T09:29:27.152Z,10.40
2023-01-23T09:31:55.662Z,9.90
2023-01-23T09:34:22.960Z,8.80
2023-01-23T09:36:49.966Z,10.20
2023-01-23T09:39:32.697Z,10.60
2023-01-23T09:42:14.476Z,10.90
2023-01-23T09:44:44.355Z,11.30
2023-01-23T09:47:20.997Z,11.20
2023-01-23T09:49:58.257Z,12.10
2023-01-23T09:52:30.731Z,11.60
2023-01-23T09:55:01.875Z,12.60
2023-01-23T09:57:43.805Z,11.90
2023-01-23T10:00:31.411Z,12.00
2023-01-23T10:03:02.384Z,9.90
2023-01-23T10:05:41.900Z,10.40
2023-01-23T10:08:38.087Z,9.60
2023-01-23T10:11:13.365Z,11.20
2023-01-23T10:13:48.184Z,10.00
2023-01-23T10:16:15.542Z,8.70
2023-01-23T10:19:21.833Z,9.10
2023-01-23T10:21:57.026Z,8.80
2023-01-23T10:24:52.323Z,9.30
2023-01-23T10:27:25.937Z,8.80
2023-01-23T10:30:03.462Z,8.50
2023-01-23T10:35:53.001Z,9.10
2023-01-23T10:38:48.312Z,8.70
2023-01-23T10:41:21.075Z,8.20
2023-01-23T10:43:51.479Z,8.70
2023-01-23T10:46:20.880Z,10.00
2023-01-23T10:48:49.879Z,11.20
2023-01-23T10:51:26.868Z,10.90
2023-01-23T10:54:31.328Z,11.80
2023-01-23T10:57:04.371Z,13.00
2023-01-23T10:59:32.226Z,13.20
2023-01-23T11:02:27.226Z,12.60
2023-01-23T11:04:55.008Z,11.90
2023-01-23T11:07:28.303Z,12.60
2023-01-23T11:10:07.785Z,13.30
2023-01-23T11:12:46.575Z,12.20
2023-01-23T11:15:19.841Z,12.10
2023-01-23T11:17:47.526Z,12.20
2023-01-23T11:20:32.958Z,10.80
2023-01-23T11:23:00.217Z,12.20
2023-01-23T11:25:33.381Z,11.80
2023-01-23T11:28:02.538Z,11.60
2023-01-23T11:30:46.775Z,11.80
2023-01-23T11:33:31.659Z,11.20
2023-01-23T11:36:19.148Z,13.20
2023-01-23T11:39:19.591Z,11.90
2023-01-23T11:41:47.353Z,12.50
2023-01-23T11:44:19.322Z,10.70
2023-01-23T11:46:52.007Z,11.20
2023-01-23T11:49:21.999Z,11.20
2023-01-23T11:51:49.273Z,10.30
2023-01-23T11:54:54.274Z,10.80
2023-01-23T11:57:36.381Z,9.60
2023-01-23T12:00:52.041Z,8.90
2023-01-23T12:03:51.760Z,10.20
2023-01-23T12:06:34.365Z,9.40
2023-01-23T12:09:17.664Z,11.40
2023-01-23T12:12:10.025Z,11.50
2023-01-23T12:14:52.709Z,9.70
2023-01-23T12:17:50.919Z,9.80
2023-01-23T12:20:33.371Z,9.50
2023-01-23T12:23:52.148Z,10.10
2023-01-23T12:26:22.588Z,9.30
2023-01-23T12:29:31.588Z,9.70
2023-01-23T12:32:20.806Z,9.80
2023-01-23T12:35:19.155Z,9.60
2023-01-23T12:38:07.837Z,9.20
2023-01-23T12:40:46.265Z,10.10
2023-01-23T12:43:37.455Z,8.10
2023-01-23T12:46:14.404Z,8.20
2023-01-23T12:48:48.914Z,9.50
2023-01-23T12:51:22.325Z,8.90
2023-01-23T12:53:52.394Z,9.90
2023-01-23T12:56:29.546Z,9.70
2023-01-23T12:59:01.601Z,12.20
2023-01-23T13:01:57.234Z,11.20
2023-01-23T13:04:36.129Z,10.00
2023-01-23T13:07:54.961Z,9.20
2023-01-23T13:11:19.816Z,10.40
2023-01-23T13:13:47.018Z,9.60
2023-01-23T13:16:19.033Z,9.10
2023-01-23T13:19:12.737Z,9.90
2023-01-23T13:21:58.957Z,8.60
2023-01-23T13:25:07.503Z,9.00
2023-01-23T13:27:41.792Z,9.50
2023-01-23T13:30:25.674Z,9.10
2023-01-23T13:33:00.276Z,8.90
2023-01-23T13:35:39.473Z,10.30
2023-01-23T13:38:22.287Z,10.40
2023-01-23T13:41:04.647Z,10.70
2023-01-23T13:43:52.779Z,9.40
2023-01-23T13:46:36.877Z,7.90
2023-01-23T18:16:36.634Z,10.80
2023-01-23T18:19:22.849Z,10.50
2023-01-23T18:21:53.885Z,9.80
2023-01-23T18:24:30.555Z,9.90
2023-01-23T18:27:17.698Z,10.30
2023-01-23T18:30:05.206Z,10.20
2023-01-23T18:32:39.936Z,12.10
2023-01-23T18:38:11.377Z,9.60
2023-01-23T18:41:05.523Z,10.80
2023-01-23T18:43:40.257Z,10.40
2023-01-23T18:46:13.347Z,10.30
2023-01-23T18:48:43.461Z,10.00
2023-01-23T18:51:21.062Z,11.00
2023-01-23T18:54:08.688Z,11.10
2023-01-23T18:57:01.126Z,11.70
2023-01-23T18:59:37.093Z,11.00
2023-01-23T19:02:21.195Z,11.40
2023-01-23T19:05:05.478Z,12.20
2023-01-23T19:07:35.334Z,13.20
2023-01-23T19:10:07.893Z,12.10
2023-01-23T19:12:42.191Z,13.00
2023-01-23T19:15:43.383Z,14.10
2023-01-23T19:18:40.452Z,12.60
2023-01-23T19:21:29.398Z,13.30
2023-01-23T19:24:00.851Z,12.20
2023-01-23T19:26:32.503Z,12.00
2023-01-23T19:29:19.278Z,11.60
2023-01-23T19:32:04.136Z,11.90
2023-01-23T19:34:34.656Z,10.90
2023-01-23T19:37:04.188Z,10.80
2023-01-23T19:39:33.741Z,10.30
2023-01-23T19:42:02.834Z,10.80
2023-01-23T19:44:31.482Z,9.60
2023-01-23T19:47:00.410Z,10.30
2023-01-23T19:49:29.223Z,10.20
2023-01-23T19:51:57.795Z,9.90
2023-01-23T19:54:28.521Z,10.60
2023-01-23T19:56:57.735Z,11.00
2023-01-23T19:59:27.506Z,11.50
2023-01-23T20:02:00.296Z,9.80
2023-01-23T20:04:29.628Z,10.30
2023-01-23T20:06:58.906Z,9.80
2023-01-23T20:09:27.939Z,10.40
2023-01-23T20:11:58.252Z,10.90
2023-01-23T20:14:27.711Z,10.40
2023-01-23T20:16:56.812Z,10.00
2023-01-23T20:19:25.636Z,10.90
2023-01-23T20:21:54.342Z,11.70
2023-01-23T20:24:24.724Z,11.20
2023-01-23T20:26:53.946Z,10.60
2023-01-23T20:29:22.465Z,12.00
2023-01-23T20:31:52.523Z,11.00
2023-01-23T20:34:21.341Z,12.00
2023-01-23T20:36:50.537Z,12.20
2023-01-23T20:39:20.252Z,12.10
2023-01-23T20:41:48.965Z,12.80
2023-01-23T20:44:17.739Z,11.20
2023-01-23T20:46:46.298Z,11.90
2023-01-23T20:49:15.147Z,11.70
2023-01-23T20:51:43.655Z,11.30
2023-01-23T20:54:12.161Z,12.60
2023-01-23T20:56:41.448Z,12.60
2023-01-23T20:59:19.554Z,11.60
2023-01-23T21:02:07.057Z,11.60
2023-01-23T21:04:36.801Z,12.70
2023-01-23T21:07:05.820Z,14.80
2023-01-23T21:09:35.420Z,12.00
2023-01-23T21:12:04.384Z,12.20
2023-01-23T21:14:33.382Z,11.90
2023-01-23T21:17:02.418Z,9.80
2023-01-23T21:19:32.596Z,10.20
2023-01-23T21:22:01.177Z,10.00
2023-01-23T21:24:34.760Z,10.80
2023-01-23T21:27:04.898Z,10.90
2023-01-23T21:29:34.006Z,10.20
2023-01-23T21:32:02.735Z,9.80
2023-01-23T21:34:31.463Z,8.60
2023-01-23T21:37:00.769Z,8.00
2023-01-23T21:39:29.648Z,9.80
2023-01-23T21:41:58.549Z,9.20
2023-01-23T21:44:27.461Z,8.40
2023-01-23T21:46:56.125Z,8.60
2023-01-23T21:49:27.370Z,10.30
2023-01-23T21:51:56.014Z,10.20
2023-01-23T21:54:24.721Z,9.10
2023-01-23T21:56:54.353Z,10.00
2023-01-23T21:59:23.010Z,9.00
2023-01-23T22:01:51.516Z,9.00
